Iron Lady — WTK5059 — position and weather

sailwx.info

Track history (hours):
 
Tides and Currents Weather Stations Pressure Air Temp Water Temp Dewpoint Dewpoint Depression Visibility Wind Speed Wind Dir Waves Ship Positions

Iron Lady

Owner: IRON LADY INC, SOUTH BEND, WA. More information available from US FCC via Universal Licensing System and Coast Guard Vessel Documentation Center.

Last reported at 2017-May-22 15:30 UTC. Time now 2017-May-22 15:32 UTC.
Position N 46°51' W 124°34'.

Type: Fishing. MMSI: 367037240.

Date/timePositionNaut miles runAvg speedWind from/ knotsBaromVisibWave heightAir tempDewpointWater temp
2017-May-22 15:30N 46°51' W 124°34'1 2.7
2017-May-22 15:00N 46°50' W 124°34'3 2.8
2017-May-22 14:00N 46°47' W 124°32'1 2.8
2017-May-22 13:31N 46°46' W 124°32'1 2.8
2017-May-22 13:00N 46°45' W 124°31'1 2.8
2017-May-22 12:30N 46°43' W 124°30'2 3.2
2017-May-22 12:00N 46°42' W 124°29'3 6.0
2017-May-22 11:30N 46°39' W 124°27'1 2.2
2017-May-22 11:00N 46°39' W 124°26'1 2.6
2017-May-22 10:30N 46°37' W 124°25'1 2.6
2017-May-22 10:00N 46°36' W 124°25'1 2.5
2017-May-22 09:30N 46°35' W 124°25'1 2.4
2017-May-22 09:00N 46°34' W 124°25'1 2.4
2017-May-22 08:30N 46°32' W 124°25'1 2.4
2017-May-22 08:00N 46°31' W 124°25'1 2.3
2017-May-22 07:30N 46°30' W 124°25'1 2.3
2017-May-22 07:00N 46°29' W 124°25'1 2.3
2017-May-22 06:30N 46°28' W 124°25'3 6.0
2017-May-22 06:00N 46°31' W 124°25'1 1.5
2017-May-22 05:30N 46°31' W 124°24'1 2.3
2017-May-22 05:00N 46°30' W 124°24'1 2.3
2017-May-22 04:30N 46°29' W 124°24'1 2.3
2017-May-22 04:00N 46°28' W 124°24'1 2.1
2017-May-22 03:30N 46°27' W 124°24'2 4.8
2017-May-22 03:00N 46°27' W 124°28'2 4.5
2017-May-22 02:30N 46°28' W 124°31'1 2.9
2017-May-22 02:00N 46°29' W 124°29'22 3.4
2017-May-21 19:36N 46°15' W 124°04'113.0
2017-May-21 19:30N 46°15' W 124°02'611.5
2017-May-21 19:00N 46°12' W 123°56'2 3.6
2017-May-21 18:30N 46°10' W 123°55'0 0.1
2017-May-21 18:00N 46°10' W 123°55'0 0.0
2017-May-21 17:30N 46°10' W 123°55'0 0.0
2017-May-21 17:00N 46°10' W 123°55'0 0.0
2017-May-21 16:30N 46°10' W 123°55'0 0.0
2017-May-21 16:00N 46°10' W 123°55'0 0.0
2017-May-21 15:30N 46°10' W 123°55'0 0.0
2017-May-21 15:00N 46°10' W 123°55'0 0.0
2017-May-21 14:00N 46°10' W 123°55'0 0.0
2017-May-21 13:30N 46°10' W 123°55'0 0.0
2017-May-21 13:00N 46°10' W 123°55'0 0.0
2017-May-21 12:30N 46°10' W 123°55'0 0.0
2017-May-21 12:00N 46°10' W 123°55'0 0.0
2017-May-21 11:30N 46°10' W 123°55'0 0.0
2017-May-21 11:00N 46°10' W 123°55'0 0.0
2017-May-21 10:30N 46°10' W 123°55'0 0.0
2017-May-21 10:00N 46°10' W 123°55'0 0.0
2017-May-21 09:30N 46°10' W 123°55'0 0.0
2017-May-21 09:00N 46°10' W 123°55'0 0.0
2017-May-21 08:30N 46°10' W 123°55'0 0.0
2017-May-21 08:00N 46°10' W 123°55'0 0.0
2017-May-21 07:30N 46°10' W 123°55'0 0.0
2017-May-21 07:00N 46°10' W 123°55'0 0.0
2017-May-21 06:30N 46°10' W 123°55'0 0.0
2017-May-21 06:00N 46°10' W 123°55'0 0.0
2017-May-21 05:30N 46°10' W 123°55'0 0.0
2017-May-21 05:00N 46°10' W 123°55'0 0.0
2017-May-21 04:30N 46°10' W 123°55'0 0.0
2017-May-21 04:00N 46°10' W 123°55'0 0.0
2017-May-21 03:30N 46°10' W 123°55'0 0.0
2017-May-21 03:00N 46°10' W 123°55'0 0.0
2017-May-21 02:30N 46°10' W 123°55'0 0.0
2017-May-21 02:00N 46°10' W 123°55'0 0.0
2017-May-21 01:30N 46°10' W 123°55'0 0.0
2017-May-21 01:00N 46°10' W 123°55'0 0.0
2017-May-21 00:30N 46°10' W 123°55'0 0.0
2017-May-21 00:00N 46°10' W 123°55'0 0.0
2017-May-20 23:30N 46°10' W 123°55'0 0.0
2017-May-20 23:00N 46°10' W 123°55'0 0.0
2017-May-20 22:30N 46°10' W 123°55'0 0.0
2017-May-20 22:00N 46°10' W 123°55'0 0.0
2017-May-20 21:30N 46°10' W 123°55'0 0.0
2017-May-20 21:00N 46°10' W 123°55'0 0.0
2017-May-20 20:30N 46°10' W 123°55'0 0.0
2017-May-20 20:00N 46°10' W 123°55'0 0.0
2017-May-20 19:30N 46°10' W 123°55'0 0.0
2017-May-20 19:00N 46°10' W 123°55'0 0.0
2017-May-20 18:30N 46°10' W 123°55'0 0.0
2017-May-20 18:01N 46°10' W 123°55'0 0.0
2017-May-20 17:30N 46°10' W 123°55'0 0.0
2017-May-20 17:00N 46°10' W 123°55'0 0.0
2017-May-20 16:30N 46°10' W 123°55'0 0.0
2017-May-20 16:00N 46°10' W 123°55'0 0.0
2017-May-20 15:31N 46°10' W 123°55'0 0.0
2017-May-20 15:01N 46°10' W 123°55'0 0.0
2017-May-20 14:00N 46°10' W 123°55'0 0.0
2017-May-20 13:30N 46°10' W 123°55'0 0.0
2017-May-20 13:01N 46°10' W 123°55'0 0.0
2017-May-20 12:30N 46°10' W 123°55'0 0.0
2017-May-20 12:00N 46°10' W 123°55'0 0.0
2017-May-20 11:30N 46°10' W 123°55'0 0.0
2017-May-20 11:00N 46°10' W 123°55'0 0.0
2017-May-20 10:31N 46°10' W 123°55'0 0.0
2017-May-20 10:01N 46°10' W 123°55'0 0.0
2017-May-20 09:31N 46°10' W 123°55'0 0.0
2017-May-20 09:01N 46°10' W 123°55'0 0.0
2017-May-20 08:30N 46°10' W 123°55'0 0.0
2017-May-20 08:01N 46°10' W 123°55'0 0.0
2017-May-20 07:30N 46°10' W 123°55'0 0.0
2017-May-20 07:00N 46°10' W 123°55'0 0.0
2017-May-20 06:31N 46°10' W 123°55'0 0.0
2017-May-20 06:01N 46°10' W 123°55'0 0.0
2017-May-20 05:30N 46°10' W 123°55'0 0.0
2017-May-20 05:00N 46°10' W 123°55'0 0.0
2017-May-20 04:30N 46°10' W 123°55'0 0.0
2017-May-20 04:00N 46°10' W 123°55'0 0.0
2017-May-20 03:30N 46°10' W 123°55'0 0.0
2017-May-20 03:00N 46°10' W 123°55'0 0.0
2017-May-20 02:31N 46°10' W 123°55'0 0.0
2017-May-20 02:01N 46°10' W 123°55'0 0.0
2017-May-20 01:31N 46°10' W 123°55'0 0.0
2017-May-20 01:00N 46°10' W 123°55'0 0.0
2017-May-20 00:30N 46°10' W 123°55'0 0.0
2017-May-20 00:00N 46°10' W 123°55'0 0.0
2017-May-19 23:30N 46°10' W 123°55'0 0.0
2017-May-19 23:00N 46°10' W 123°55'0 0.0
2017-May-19 22:31N 46°10' W 123°55'0 0.0
2017-May-19 22:00N 46°10' W 123°55'0 0.0
2017-May-19 21:30N 46°10' W 123°55'0 0.0
2017-May-19 21:00N 46°10' W 123°55'0 0.0
2017-May-19 20:31N 46°10' W 123°55'0 0.0
2017-May-19 20:00N 46°10' W 123°55'0 0.0
2017-May-19 19:30N 46°10' W 123°55'0 0.0
2017-May-19 19:00N 46°10' W 123°55'0 0.0
2017-May-19 18:31N 46°10' W 123°55'0 0.0
2017-May-19 18:01N 46°10' W 123°55'0 0.0
2017-May-19 17:30N 46°10' W 123°55'0 0.0
2017-May-19 17:01N 46°10' W 123°55'0 0.0
2017-May-19 16:30N 46°10' W 123°55'0 0.0
2017-May-19 16:00N 46°10' W 123°55'0 0.0
2017-May-19 15:30N 46°10' W 123°55'0 0.0
2017-May-19 15:01N 46°10' W 123°55'0 0.0
2017-May-19 14:01N 46°10' W 123°55'0 0.0
2017-May-19 13:31N 46°10' W 123°55'0 0.0
2017-May-19 13:00N 46°10' W 123°55'0 0.0
2017-May-19 12:30N 46°10' W 123°55'0 0.0
2017-May-19 12:00N 46°10' W 123°55'0 0.0
2017-May-19 11:30N 46°10' W 123°55'0 0.0
2017-May-19 11:01N 46°10' W 123°55'0 0.0
2017-May-19 10:30N 46°10' W 123°55'0 0.0
2017-May-19 10:00N 46°10' W 123°55'0 0.0
2017-May-19 09:30N 46°10' W 123°55'0 0.0
2017-May-19 09:00N 46°10' W 123°55'0 0.0
2017-May-19 08:30N 46°10' W 123°55'0 0.0
2017-May-19 08:00N 46°10' W 123°55'0 0.0
2017-May-19 07:31N 46°10' W 123°55'0 0.0
2017-May-19 07:00N 46°10' W 123°55'0 0.0
2017-May-19 06:31N 46°10' W 123°55'0 0.0
2017-May-19 06:01N 46°10' W 123°55'0 0.0
2017-May-19 05:31N 46°10' W 123°55'0 0.0
2017-May-19 05:00N 46°10' W 123°55'0 0.0
2017-May-19 04:30N 46°10' W 123°55'0 0.0
2017-May-19 04:01N 46°10' W 123°55'0 0.0
2017-May-19 03:30N 46°10' W 123°55'0 0.0
2017-May-19 03:00N 46°10' W 123°55'0 0.0
2017-May-19 02:31N 46°10' W 123°55'0 0.0
2017-May-19 02:00N 46°10' W 123°55'0 0.0
2017-May-19 01:31N 46°10' W 123°55'0 0.0
2017-May-19 01:01N 46°10' W 123°55'0 0.0
2017-May-19 00:31N 46°10' W 123°55'0 0.0
2017-May-19 00:01N 46°10' W 123°55'0 0.0
2017-May-18 23:30N 46°10' W 123°55'0 0.0
2017-May-18 23:01N 46°10' W 123°55'0 0.0
2017-May-18 22:30N 46°10' W 123°55'0 0.0
2017-May-18 22:00N 46°10' W 123°55'0 0.0
2017-May-18 21:31N 46°10' W 123°55'0 0.0
2017-May-18 21:00N 46°10' W 123°55'0 0.0
2017-May-18 20:31N 46°10' W 123°55'0 0.0
2017-May-18 20:00N 46°10' W 123°55'0 0.0
2017-May-18 19:31N 46°10' W 123°55'0 0.0
2017-May-18 19:00N 46°10' W 123°55'0 0.0
2017-May-18 18:30N 46°10' W 123°55'0 0.0
2017-May-18 18:01N 46°10' W 123°55'0 0.0
2017-May-18 17:31N 46°10' W 123°55'0 0.0
2017-May-18 17:00N 46°10' W 123°55'0 0.0
2017-May-18 16:30N 46°10' W 123°55'0 0.0
2017-May-18 16:01N 46°10' W 123°55'0 0.0
2017-May-18 15:30N 46°10' W 123°55'0 0.0
2017-May-18 15:00N 46°10' W 123°55'0 0.0
2017-May-18 14:01N 46°10' W 123°55'0 0.0
2017-May-18 13:30N 46°10' W 123°55'0 0.0
2017-May-18 13:01N 46°10' W 123°55'0 0.0
2017-May-18 12:30N 46°10' W 123°55'0 0.0
2017-May-18 12:01N 46°10' W 123°55'0 0.0
2017-May-18 11:31N 46°10' W 123°55'0 0.0
2017-May-18 11:00N 46°10' W 123°55'0 0.0
2017-May-18 10:30N 46°10' W 123°55'0 0.0
2017-May-18 10:00N 46°10' W 123°55'0 0.0
2017-May-18 09:31N 46°10' W 123°55'0 0.0
2017-May-18 09:00N 46°10' W 123°55'0 0.0
2017-May-18 08:30N 46°10' W 123°55'0 0.0
2017-May-18 08:00N 46°10' W 123°55'0 0.0
2017-May-18 07:30N 46°10' W 123°55'0 0.0
2017-May-18 07:00N 46°10' W 123°55'0 0.0
2017-May-18 06:31N 46°10' W 123°55'0 0.0
2017-May-18 06:00N 46°10' W 123°55'0 0.0
2017-May-18 05:31N 46°10' W 123°55'0 0.0
2017-May-18 05:01N 46°10' W 123°55'0 0.0
2017-May-18 04:31N 46°10' W 123°55'0 0.0
2017-May-18 04:00N 46°10' W 123°55'0 0.0
2017-May-18 03:31N 46°10' W 123°55'0 0.0
2017-May-18 03:00N 46°10' W 123°55'0 0.0
2017-May-18 02:30N 46°10' W 123°55'0 0.0
2017-May-18 02:01N 46°10' W 123°55'0 0.0
2017-May-18 01:30N 46°10' W 123°55'0 0.0
2017-May-18 01:00N 46°10' W 123°55'0 0.0
2017-May-18 00:31N 46°10' W 123°55'0 0.0
2017-May-18 00:00N 46°10' W 123°55'0 0.0
2017-May-17 23:30N 46°10' W 123°55'0 0.0
2017-May-17 23:00N 46°10' W 123°55'0 0.0
2017-May-17 22:30N 46°10' W 123°55'0 0.0
2017-May-17 22:00N 46°10' W 123°55'0 0.0
2017-May-17 21:30N 46°10' W 123°55'0 0.0
2017-May-17 21:00N 46°10' W 123°55'0 0.0
2017-May-17 20:30N 46°10' W 123°55'0 0.0
2017-May-17 20:01N 46°10' W 123°55'0 0.0
2017-May-17 19:31N 46°10' W 123°55'0 0.0
2017-May-17 19:00N 46°10' W 123°55'0 0.0
2017-May-17 18:31N 46°10' W 123°55'0 0.0
2017-May-17 18:00N 46°10' W 123°55'0 0.2
2017-May-17 17:30N 46°10' W 123°55'0 0.0
2017-May-17 17:00N 46°10' W 123°55'0 0.0
2017-May-17 16:31N 46°10' W 123°55'0 0.0
2017-May-17 16:00N 46°10' W 123°55'0 0.0
2017-May-17 15:30N 46°10' W 123°55'0 0.0
2017-May-17 15:00N 46°10' W 123°55'0 0.0
2017-May-17 14:30N 46°10' W 123°55'0 0.0
2017-May-17 13:30N 46°10' W 123°55'0 0.2
2017-May-17 13:00N 46°10' W 123°55'0 0.0
2017-May-17 12:30N 46°10' W 123°55'0 0.0
2017-May-17 12:00N 46°10' W 123°55'0 0.0
2017-May-17 11:30N 46°10' W 123°55'0 0.0
2017-May-17 11:00N 46°10' W 123°55'0 0.0
2017-May-17 10:30N 46°10' W 123°55'0 0.0
2017-May-17 10:00N 46°10' W 123°55'0 0.0
2017-May-17 09:30N 46°10' W 123°55'0 0.0
2017-May-17 09:00N 46°10' W 123°55'0 0.0
2017-May-17 08:31N 46°10' W 123°55'0 0.0
2017-May-17 08:00N 46°10' W 123°55'0 0.0
2017-May-17 07:31N 46°10' W 123°55'0 0.0
2017-May-17 07:00N 46°10' W 123°55'0 0.0
2017-May-17 06:31N 46°10' W 123°55'0 0.0
2017-May-17 06:00N 46°10' W 123°55'0 0.0
2017-May-17 05:31N 46°10' W 123°55'0 0.0
2017-May-17 05:01N 46°10' W 123°55'0 0.0
2017-May-17 04:30N 46°10' W 123°55'0 0.0
2017-May-17 04:00N 46°10' W 123°55'0 0.0
2017-May-17 03:30N 46°10' W 123°55'0 0.0
2017-May-17 03:00N 46°10' W 123°55'0 0.0
2017-May-17 02:30N 46°10' W 123°55'0 0.0
2017-May-17 02:01N 46°10' W 123°55'0 0.0
2017-May-17 01:30N 46°10' W 123°55'0 0.0
2017-May-17 01:01N 46°10' W 123°55'0 0.0
2017-May-17 00:31N 46°10' W 123°55'0 0.0
2017-May-17 00:00N 46°10' W 123°55'0 0.0
2017-May-16 23:30N 46°10' W 123°55'0 0.0
2017-May-16 23:00N 46°10' W 123°55'0 0.0
2017-May-16 22:30N 46°10' W 123°55'0 0.0
2017-May-16 22:00N 46°10' W 123°55'0 0.0
2017-May-16 21:30N 46°10' W 123°55'0 0.0
2017-May-16 21:00N 46°10' W 123°55'0 0.0
2017-May-16 20:31N 46°10' W 123°55'0 0.0
2017-May-16 20:01N 46°10' W 123°55'0 0.0
2017-May-16 19:31N 46°10' W 123°55'0 0.0
2017-May-16 19:01N 46°10' W 123°55'0 0.0
2017-May-16 18:30N 46°10' W 123°55'0 0.0
2017-May-16 18:00N 46°10' W 123°55'0 0.0
2017-May-16 17:30N 46°10' W 123°55'0 0.0
2017-May-16 17:00N 46°10' W 123°55'0 0.0
2017-May-16 16:30N 46°10' W 123°55'0 0.0
2017-May-16 16:00N 46°10' W 123°55'0 0.0
2017-May-16 15:30N 46°10' W 123°55'0 0.0
2017-May-16 15:00N 46°10' W 123°55'0 0.0
2017-May-16 14:30N 46°10' W 123°55'0 0.0
2017-May-16 13:30N 46°10' W 123°55'0 0.0
2017-May-16 13:01N 46°10' W 123°55'0 0.0
2017-May-16 12:30N 46°10' W 123°55'0 0.0
2017-May-16 12:00N 46°10' W 123°55'0 0.0
2017-May-16 11:30N 46°10' W 123°55'0 0.0
2017-May-16 11:00N 46°10' W 123°55'0 0.0
2017-May-16 10:31N 46°10' W 123°55'1 2.4
2017-May-16 10:01N 46°11' W 123°55'4 8.7
2017-May-16 09:30N 46°14' W 123°59'4 7.2
2017-May-16 09:00N 46°15' W 124°04'3 6.7
2017-May-16 08:30N 46°14' W 124°09'3 6.2
2017-May-16 08:00N 46°16' W 124°12'2 4.6
2017-May-16 07:30N 46°18' W 124°14'2 4.2
2017-May-16 07:00N 46°20' W 124°15'2 4.9
2017-May-16 06:30N 46°22' W 124°17'3 5.3
2017-May-16 06:00N 46°24' W 124°19'3 5.4
2017-May-16 05:30N 46°26' W 124°22'3 5.5
2017-May-16 05:00N 46°29' W 124°24'3 5.5
2017-May-16 04:31N 46°31' W 124°26'3 5.4
2017-May-16 04:00N 46°33' W 124°28'3 5.7
2017-May-16 03:30N 46°36' W 124°30'3 6.1
2017-May-16 03:00N 46°38' W 124°33'3 6.3
2017-May-16 02:30N 46°41' W 124°35'3 6.5
2017-May-16 02:00N 46°43' W 124°38'7 6.6
2017-May-16 01:00N 46°49' W 124°43'1 1.6
2017-May-16 00:29N 46°49' W 124°44'1 2.6
2017-May-16 00:00N 46°51' W 124°45'2 2.6
2017-May-15 23:16N 46°52' W 124°45'1 2.6
2017-May-15 22:54N 46°53' W 124°45'1 2.5
2017-May-15 22:23N 46°55' W 124°45'46 2.3
2017-May-15 02:11N 46°16' W 124°09'2 8.7
2017-May-15 02:00N 46°15' W 124°08'5 9.6
2017-May-15 01:30N 46°15' W 124°01'5 9.9
2017-May-15 01:00N 46°12' W 123°55'2 3.1
2017-May-15 00:30N 46°10' W 123°55'0 0.0
2017-May-15 00:00N 46°10' W 123°55'0 0.0
2017-May-14 23:30N 46°10' W 123°55'0 0.0
2017-May-14 23:00N 46°10' W 123°55'0 0.0
2017-May-14 22:30N 46°10' W 123°55'0 0.0
2017-May-14 22:00N 46°10' W 123°55'0 0.0
2017-May-14 21:30N 46°10' W 123°55'0 0.0
2017-May-14 20:39N 46°10' W 123°55'0 0.0
2017-May-14 20:30N 46°10' W 123°55'0 0.0
2017-May-14 20:00N 46°10' W 123°55'0 0.0
2017-May-14 19:31N 46°10' W 123°55'0 0.0
2017-May-14 19:01N 46°10' W 123°55'0 0.0
2017-May-14 18:30N 46°10' W 123°55'0 0.0
2017-May-14 18:00N 46°10' W 123°55'0 0.0
2017-May-14 17:30N 46°10' W 123°55'0 0.0
2017-May-14 17:00N 46°10' W 123°55'0 0.0
2017-May-14 16:30N 46°10' W 123°55'0 0.0
2017-May-14 16:00N 46°10' W 123°55'0 0.0
2017-May-14 15:30N 46°10' W 123°55'0 0.0
2017-May-14 15:00N 46°10' W 123°55'0 0.0
2017-May-14 14:30N 46°10' W 123°55'0 0.0
2017-May-14 13:30N 46°10' W 123°55'0 0.0
2017-May-14 13:00N 46°10' W 123°55'0 0.0
2017-May-14 12:30N 46°10' W 123°55'0 0.0
2017-May-14 12:00N 46°10' W 123°55'0 0.0
2017-May-14 11:30N 46°10' W 123°55'0 0.0
2017-May-14 11:00N 46°10' W 123°55'0 0.0
2017-May-14 10:29N 46°10' W 123°55'0 0.0
2017-May-14 10:01N 46°10' W 123°55'0 0.0
2017-May-14 09:30N 46°10' W 123°55'0 0.0
2017-May-14 09:00N 46°10' W 123°55'0 0.0
2017-May-14 08:30N 46°10' W 123°55'0 0.0
2017-May-14 08:01N 46°10' W 123°55'0 0.0
2017-May-14 07:30N 46°10' W 123°55'0 0.0
2017-May-14 07:00N 46°10' W 123°55'0 0.0
2017-May-14 06:31N 46°10' W 123°55'0 0.0
2017-May-14 06:00N 46°10' W 123°55'0 0.0
2017-May-14 05:30N 46°10' W 123°55'0 0.0
2017-May-14 05:00N 46°10' W 123°55'0 0.0
2017-May-14 04:31N 46°10' W 123°55'0 0.0
2017-May-14 04:00N 46°10' W 123°55'0 0.0
2017-May-14 03:30N 46°10' W 123°55'0 0.0
2017-May-14 03:00N 46°10' W 123°55'0 0.0
2017-May-14 02:30N 46°10' W 123°55'0 0.0
2017-May-14 02:00N 46°10' W 123°55'0 0.0
2017-May-14 01:30N 46°10' W 123°55'0 0.0
2017-May-14 00:57N 46°10' W 123°55'0 0.0
2017-May-14 00:30N 46°10' W 123°55'0 0.0
2017-May-14 00:00N 46°10' W 123°55'0 0.0
2017-May-13 23:30N 46°10' W 123°55'0 0.0
2017-May-13 23:00N 46°10' W 123°55'0 0.0
2017-May-13 22:30N 46°10' W 123°55'0 0.0
2017-May-13 22:00N 46°10' W 123°55'0 0.0
2017-May-13 21:09N 46°10' W 123°55'0 0.0
2017-May-13 21:00N 46°10' W 123°55'0 0.0
2017-May-13 20:30N 46°10' W 123°55'0 0.0
2017-May-13 20:00N 46°10' W 123°55'0 0.0
2017-May-13 19:31N 46°10' W 123°55'0 0.0
2017-May-13 19:00N 46°10' W 123°55'0 0.0
2017-May-13 18:30N 46°10' W 123°55'0 0.0
2017-May-13 18:00N 46°10' W 123°55'0 0.0
2017-May-13 17:30N 46°10' W 123°55'0 0.0
2017-May-13 17:00N 46°10' W 123°55'0 0.0
2017-May-13 16:30N 46°10' W 123°55'0 0.0
2017-May-13 16:00N 46°10' W 123°55'0 0.1
2017-May-13 15:31N 46°10' W 123°55'0 0.0
2017-May-13 15:00N 46°10' W 123°55'0 0.1
2017-May-13 14:30N 46°10' W 123°55'0 0.0
2017-May-13 13:30N 46°10' W 123°55'0 0.0
2017-May-13 13:00N 46°10' W 123°55'0 0.0
2017-May-13 12:30N 46°10' W 123°55'0 0.0
2017-May-13 12:00N 46°10' W 123°55'0 0.0
2017-May-13 11:30N 46°10' W 123°55'0 0.0
2017-May-13 11:01N 46°10' W 123°55'0 0.0
2017-May-13 10:30N 46°10' W 123°55'0 0.0
2017-May-13 10:00N 46°10' W 123°55'0 0.0
2017-May-13 09:30N 46°10' W 123°55'0 0.0
2017-May-13 09:00N 46°10' W 123°55'0 0.0
2017-May-13 08:31N 46°10' W 123°55'0 0.0
2017-May-13 07:58N 46°10' W 123°55'0 0.0
2017-May-13 07:30N 46°10' W 123°55'0 0.0
2017-May-13 07:00N 46°10' W 123°55'0 0.0
2017-May-13 06:30N 46°10' W 123°55'0 0.0
2017-May-13 06:00N 46°10' W 123°55'0 0.0
2017-May-13 05:31N 46°10' W 123°55'0 0.0
2017-May-13 05:00N 46°10' W 123°55'0 0.0
2017-May-13 04:30N 46°10' W 123°55'0 0.0
2017-May-13 04:00N 46°10' W 123°55'0 0.0
2017-May-13 03:30N 46°10' W 123°55'0 0.0
2017-May-13 03:00N 46°10' W 123°55'0 0.0
2017-May-13 02:31N 46°10' W 123°55'0 0.0
2017-May-13 02:00N 46°10' W 123°55'0 0.0
2017-May-13 01:24N 46°10' W 123°55'0 0.0
2017-May-13 01:00N 46°10' W 123°55'0 0.0
2017-May-13 00:31N 46°10' W 123°55'0 0.0
2017-May-13 00:00N 46°10' W 123°55'0 0.0
2017-May-12 23:30N 46°10' W 123°55'0 0.0
2017-May-12 23:00N 46°10' W 123°55'0 0.0
2017-May-12 22:30N 46°10' W 123°55'0 0.0
2017-May-12 22:01N 46°10' W 123°55'0 0.0
2017-May-12 21:30N 46°10' W 123°55'0 0.0
2017-May-12 21:00N 46°10' W 123°55'0 0.0
2017-May-12 20:30N 46°10' W 123°55'0 0.0
2017-May-12 20:00N 46°10' W 123°55'0 0.0
2017-May-12 19:30N 46°10' W 123°55'0 0.0
2017-May-12 19:00N 46°10' W 123°55'0 0.0
2017-May-12 18:31N 46°10' W 123°55'0 0.0
2017-May-12 18:00N 46°10' W 123°55'0 0.0
2017-May-12 17:30N 46°10' W 123°55'0 0.0
2017-May-12 17:00N 46°10' W 123°55'0 0.0
2017-May-12 16:30N 46°10' W 123°55'0 0.0
2017-May-12 16:00N 46°10' W 123°55'0 0.0
2017-May-12 15:31N 46°10' W 123°55'  
Track history (hours):
 
Tides and Currents Weather Stations Pressure Air Temp Water Temp Dewpoint Dewpoint Depression Visibility Wind Speed Wind Dir Waves Ship Positions

Iron Lady

Owner: IRON LADY INC, SOUTH BEND, WA. More information available from US FCC via Universal Licensing System and Coast Guard Vessel Documentation Center.

Last reported at 2017-May-22 15:30 UTC. Time now 2017-May-22 15:32 UTC.
Position N 46°51' W 124°34'.

Type: Fishing. MMSI: 367037240.

Date/timePositionNaut miles runAvg speedWind from/ knotsBaromVisibWave heightAir tempDewpointWater temp
2017-May-22 15:30N 46°51' W 124°34'1 2.7
2017-May-22 15:00N 46°50' W 124°34'3 2.8
2017-May-22 14:00N 46°47' W 124°32'1 2.8
2017-May-22 13:31N 46°46' W 124°32'1 2.8
2017-May-22 13:00N 46°45' W 124°31'1 2.8
2017-May-22 12:30N 46°43' W 124°30'2 3.2
2017-May-22 12:00N 46°42' W 124°29'3 6.0
2017-May-22 11:30N 46°39' W 124°27'1 2.2
2017-May-22 11:00N 46°39' W 124°26'1 2.6
2017-May-22 10:30N 46°37' W 124°25'1 2.6
2017-May-22 10:00N 46°36' W 124°25'1 2.5
2017-May-22 09:30N 46°35' W 124°25'1 2.4
2017-May-22 09:00N 46°34' W 124°25'1 2.4
2017-May-22 08:30N 46°32' W 124°25'1 2.4
2017-May-22 08:00N 46°31' W 124°25'1 2.3
2017-May-22 07:30N 46°30' W 124°25'1 2.3
2017-May-22 07:00N 46°29' W 124°25'1 2.3
2017-May-22 06:30N 46°28' W 124°25'3 6.0
2017-May-22 06:00N 46°31' W 124°25'1 1.5
2017-May-22 05:30N 46°31' W 124°24'1 2.3
2017-May-22 05:00N 46°30' W 124°24'1 2.3
2017-May-22 04:30N 46°29' W 124°24'1 2.3
2017-May-22 04:00N 46°28' W 124°24'1 2.1
2017-May-22 03:30N 46°27' W 124°24'2 4.8
2017-May-22 03:00N 46°27' W 124°28'2 4.5
2017-May-22 02:30N 46°28' W 124°31'1 2.9
2017-May-22 02:00N 46°29' W 124°29'22 3.4
2017-May-21 19:36N 46°15' W 124°04'113.0
2017-May-21 19:30N 46°15' W 124°02'611.5
2017-May-21 19:00N 46°12' W 123°56'2 3.6
2017-May-21 18:30N 46°10' W 123°55'0 0.1
2017-May-21 18:00N 46°10' W 123°55'0 0.0
2017-May-21 17:30N 46°10' W 123°55'0 0.0
2017-May-21 17:00N 46°10' W 123°55'0 0.0
2017-May-21 16:30N 46°10' W 123°55'0 0.0
2017-May-21 16:00N 46°10' W 123°55'0 0.0
2017-May-21 15:30N 46°10' W 123°55'0 0.0
2017-May-21 15:00N 46°10' W 123°55'0 0.0
2017-May-21 14:00N 46°10' W 123°55'0 0.0
2017-May-21 13:30N 46°10' W 123°55'0 0.0
2017-May-21 13:00N 46°10' W 123°55'0 0.0
2017-May-21 12:30N 46°10' W 123°55'0 0.0
2017-May-21 12:00N 46°10' W 123°55'0 0.0
2017-May-21 11:30N 46°10' W 123°55'0 0.0
2017-May-21 11:00N 46°10' W 123°55'0 0.0
2017-May-21 10:30N 46°10' W 123°55'0 0.0
2017-May-21 10:00N 46°10' W 123°55'0 0.0
2017-May-21 09:30N 46°10' W 123°55'0 0.0
2017-May-21 09:00N 46°10' W 123°55'0 0.0
2017-May-21 08:30N 46°10' W 123°55'0 0.0
2017-May-21 08:00N 46°10' W 123°55'0 0.0
2017-May-21 07:30N 46°10' W 123°55'0 0.0
2017-May-21 07:00N 46°10' W 123°55'0 0.0
2017-May-21 06:30N 46°10' W 123°55'0 0.0
2017-May-21 06:00N 46°10' W 123°55'0 0.0
2017-May-21 05:30N 46°10' W 123°55'0 0.0
2017-May-21 05:00N 46°10' W 123°55'0 0.0
2017-May-21 04:30N 46°10' W 123°55'0 0.0
2017-May-21 04:00N 46°10' W 123°55'0 0.0
2017-May-21 03:30N 46°10' W 123°55'0 0.0
2017-May-21 03:00N 46°10' W 123°55'0 0.0
2017-May-21 02:30N 46°10' W 123°55'0 0.0
2017-May-21 02:00N 46°10' W 123°55'0 0.0
2017-May-21 01:30N 46°10' W 123°55'0 0.0
2017-May-21 01:00N 46°10' W 123°55'0 0.0
2017-May-21 00:30N 46°10' W 123°55'0 0.0
2017-May-21 00:00N 46°10' W 123°55'0 0.0
2017-May-20 23:30N 46°10' W 123°55'0 0.0
2017-May-20 23:00N 46°10' W 123°55'0 0.0
2017-May-20 22:30N 46°10' W 123°55'0 0.0
2017-May-20 22:00N 46°10' W 123°55'0 0.0
2017-May-20 21:30N 46°10' W 123°55'0 0.0
2017-May-20 21:00N 46°10' W 123°55'0 0.0
2017-May-20 20:30N 46°10' W 123°55'0 0.0
2017-May-20 20:00N 46°10' W 123°55'0 0.0
2017-May-20 19:30N 46°10' W 123°55'0 0.0
2017-May-20 19:00N 46°10' W 123°55'0 0.0
2017-May-20 18:30N 46°10' W 123°55'0 0.0
2017-May-20 18:01N 46°10' W 123°55'0 0.0
2017-May-20 17:30N 46°10' W 123°55'0 0.0
2017-May-20 17:00N 46°10' W 123°55'0 0.0
2017-May-20 16:30N 46°10' W 123°55'0 0.0
2017-May-20 16:00N 46°10' W 123°55'0 0.0
2017-May-20 15:31N 46°10' W 123°55'0 0.0
2017-May-20 15:01N 46°10' W 123°55'0 0.0
2017-May-20 14:00N 46°10' W 123°55'0 0.0
2017-May-20 13:30N 46°10' W 123°55'0 0.0
2017-May-20 13:01N 46°10' W 123°55'0 0.0
2017-May-20 12:30N 46°10' W 123°55'0 0.0
2017-May-20 12:00N 46°10' W 123°55'0 0.0
2017-May-20 11:30N 46°10' W 123°55'0 0.0
2017-May-20 11:00N 46°10' W 123°55'0 0.0
2017-May-20 10:31N 46°10' W 123°55'0 0.0
2017-May-20 10:01N 46°10' W 123°55'0 0.0
2017-May-20 09:31N 46°10' W 123°55'0 0.0
2017-May-20 09:01N 46°10' W 123°55'0 0.0
2017-May-20 08:30N 46°10' W 123°55'0 0.0
2017-May-20 08:01N 46°10' W 123°55'0 0.0
2017-May-20 07:30N 46°10' W 123°55'0 0.0
2017-May-20 07:00N 46°10' W 123°55'0 0.0
2017-May-20 06:31N 46°10' W 123°55'0 0.0
2017-May-20 06:01N 46°10' W 123°55'0 0.0
2017-May-20 05:30N 46°10' W 123°55'0 0.0
2017-May-20 05:00N 46°10' W 123°55'0 0.0
2017-May-20 04:30N 46°10' W 123°55'0 0.0
2017-May-20 04:00N 46°10' W 123°55'0 0.0
2017-May-20 03:30N 46°10' W 123°55'0 0.0
2017-May-20 03:00N 46°10' W 123°55'0 0.0
2017-May-20 02:31N 46°10' W 123°55'0 0.0
2017-May-20 02:01N 46°10' W 123°55'0 0.0
2017-May-20 01:31N 46°10' W 123°55'0 0.0
2017-May-20 01:00N 46°10' W 123°55'0 0.0
2017-May-20 00:30N 46°10' W 123°55'0 0.0
2017-May-20 00:00N 46°10' W 123°55'0 0.0
2017-May-19 23:30N 46°10' W 123°55'0 0.0
2017-May-19 23:00N 46°10' W 123°55'0 0.0
2017-May-19 22:31N 46°10' W 123°55'0 0.0
2017-May-19 22:00N 46°10' W 123°55'0 0.0
2017-May-19 21:30N 46°10' W 123°55'0 0.0
2017-May-19 21:00N 46°10' W 123°55'0 0.0
2017-May-19 20:31N 46°10' W 123°55'0 0.0
2017-May-19 20:00N 46°10' W 123°55'0 0.0
2017-May-19 19:30N 46°10' W 123°55'0 0.0
2017-May-19 19:00N 46°10' W 123°55'0 0.0
2017-May-19 18:31N 46°10' W 123°55'0 0.0
2017-May-19 18:01N 46°10' W 123°55'0 0.0
2017-May-19 17:30N 46°10' W 123°55'0 0.0
2017-May-19 17:01N 46°10' W 123°55'0 0.0
2017-May-19 16:30N 46°10' W 123°55'0 0.0
2017-May-19 16:00N 46°10' W 123°55'0 0.0
2017-May-19 15:30N 46°10' W 123°55'0 0.0
2017-May-19 15:01N 46°10' W 123°55'0 0.0
2017-May-19 14:01N 46°10' W 123°55'0 0.0
2017-May-19 13:31N 46°10' W 123°55'0 0.0
2017-May-19 13:00N 46°10' W 123°55'0 0.0
2017-May-19 12:30N 46°10' W 123°55'0 0.0
2017-May-19 12:00N 46°10' W 123°55'0 0.0
2017-May-19 11:30N 46°10' W 123°55'0 0.0
2017-May-19 11:01N 46°10' W 123°55'0 0.0
2017-May-19 10:30N 46°10' W 123°55'0 0.0
2017-May-19 10:00N 46°10' W 123°55'0 0.0
2017-May-19 09:30N 46°10' W 123°55'0 0.0
2017-May-19 09:00N 46°10' W 123°55'0 0.0
2017-May-19 08:30N 46°10' W 123°55'0 0.0
2017-May-19 08:00N 46°10' W 123°55'0 0.0
2017-May-19 07:31N 46°10' W 123°55'0 0.0
2017-May-19 07:00N 46°10' W 123°55'0 0.0
2017-May-19 06:31N 46°10' W 123°55'0 0.0
2017-May-19 06:01N 46°10' W 123°55'0 0.0
2017-May-19 05:31N 46°10' W 123°55'0 0.0
2017-May-19 05:00N 46°10' W 123°55'0 0.0
2017-May-19 04:30N 46°10' W 123°55'0 0.0
2017-May-19 04:01N 46°10' W 123°55'0 0.0
2017-May-19 03:30N 46°10' W 123°55'0 0.0
2017-May-19 03:00N 46°10' W 123°55'0 0.0
2017-May-19 02:31N 46°10' W 123°55'0 0.0
2017-May-19 02:00N 46°10' W 123°55'0 0.0
2017-May-19 01:31N 46°10' W 123°55'0 0.0
2017-May-19 01:01N 46°10' W 123°55'0 0.0
2017-May-19 00:31N 46°10' W 123°55'0 0.0
2017-May-19 00:01N 46°10' W 123°55'0 0.0
2017-May-18 23:30N 46°10' W 123°55'0 0.0
2017-May-18 23:01N 46°10' W 123°55'0 0.0
2017-May-18 22:30N 46°10' W 123°55'0 0.0
2017-May-18 22:00N 46°10' W 123°55'0 0.0
2017-May-18 21:31N 46°10' W 123°55'0 0.0
2017-May-18 21:00N 46°10' W 123°55'0 0.0
2017-May-18 20:31N 46°10' W 123°55'0 0.0
2017-May-18 20:00N 46°10' W 123°55'0 0.0
2017-May-18 19:31N 46°10' W 123°55'0 0.0
2017-May-18 19:00N 46°10' W 123°55'0 0.0
2017-May-18 18:30N 46°10' W 123°55'0 0.0
2017-May-18 18:01N 46°10' W 123°55'0 0.0
2017-May-18 17:31N 46°10' W 123°55'0 0.0
2017-May-18 17:00N 46°10' W 123°55'0 0.0
2017-May-18 16:30N 46°10' W 123°55'0 0.0
2017-May-18 16:01N 46°10' W 123°55'0 0.0
2017-May-18 15:30N 46°10' W 123°55'0 0.0
2017-May-18 15:00N 46°10' W 123°55'0 0.0
2017-May-18 14:01N 46°10' W 123°55'0 0.0
2017-May-18 13:30N 46°10' W 123°55'0 0.0
2017-May-18 13:01N 46°10' W 123°55'0 0.0
2017-May-18 12:30N 46°10' W 123°55'0 0.0
2017-May-18 12:01N 46°10' W 123°55'0 0.0
2017-May-18 11:31N 46°10' W 123°55'0 0.0
2017-May-18 11:00N 46°10' W 123°55'0 0.0
2017-May-18 10:30N 46°10' W 123°55'0 0.0
2017-May-18 10:00N 46°10' W 123°55'0 0.0
2017-May-18 09:31N 46°10' W 123°55'0 0.0
2017-May-18 09:00N 46°10' W 123°55'0 0.0
2017-May-18 08:30N 46°10' W 123°55'0 0.0
2017-May-18 08:00N 46°10' W 123°55'0 0.0
2017-May-18 07:30N 46°10' W 123°55'0 0.0
2017-May-18 07:00N 46°10' W 123°55'0 0.0
2017-May-18 06:31N 46°10' W 123°55'0 0.0
2017-May-18 06:00N 46°10' W 123°55'0 0.0
2017-May-18 05:31N 46°10' W 123°55'0 0.0
2017-May-18 05:01N 46°10' W 123°55'0 0.0
2017-May-18 04:31N 46°10' W 123°55'0 0.0
2017-May-18 04:00N 46°10' W 123°55'0 0.0
2017-May-18 03:31N 46°10' W 123°55'0 0.0
2017-May-18 03:00N 46°10' W 123°55'0 0.0
2017-May-18 02:30N 46°10' W 123°55'0 0.0
2017-May-18 02:01N 46°10' W 123°55'0 0.0
2017-May-18 01:30N 46°10' W 123°55'0 0.0
2017-May-18 01:00N 46°10' W 123°55'0 0.0
2017-May-18 00:31N 46°10' W 123°55'0 0.0
2017-May-18 00:00N 46°10' W 123°55'0 0.0
2017-May-17 23:30N 46°10' W 123°55'0 0.0
2017-May-17 23:00N 46°10' W 123°55'0 0.0
2017-May-17 22:30N 46°10' W 123°55'0 0.0
2017-May-17 22:00N 46°10' W 123°55'0 0.0
2017-May-17 21:30N 46°10' W 123°55'0 0.0
2017-May-17 21:00N 46°10' W 123°55'0 0.0
2017-May-17 20:30N 46°10' W 123°55'0 0.0
2017-May-17 20:01N 46°10' W 123°55'0 0.0
2017-May-17 19:31N 46°10' W 123°55'0 0.0
2017-May-17 19:00N 46°10' W 123°55'0 0.0
2017-May-17 18:31N 46°10' W 123°55'0 0.0
2017-May-17 18:00N 46°10' W 123°55'0 0.2
2017-May-17 17:30N 46°10' W 123°55'0 0.0
2017-May-17 17:00N 46°10' W 123°55'0 0.0
2017-May-17 16:31N 46°10' W 123°55'0 0.0
2017-May-17 16:00N 46°10' W 123°55'0 0.0
2017-May-17 15:30N 46°10' W 123°55'0 0.0
2017-May-17 15:00N 46°10' W 123°55'0 0.0
2017-May-17 14:30N 46°10' W 123°55'0 0.0
2017-May-17 13:30N 46°10' W 123°55'0 0.2
2017-May-17 13:00N 46°10' W 123°55'0 0.0
2017-May-17 12:30N 46°10' W 123°55'0 0.0
2017-May-17 12:00N 46°10' W 123°55'0 0.0
2017-May-17 11:30N 46°10' W 123°55'0 0.0
2017-May-17 11:00N 46°10' W 123°55'0 0.0
2017-May-17 10:30N 46°10' W 123°55'0 0.0
2017-May-17 10:00N 46°10' W 123°55'0 0.0
2017-May-17 09:30N 46°10' W 123°55'0 0.0
2017-May-17 09:00N 46°10' W 123°55'0 0.0
2017-May-17 08:31N 46°10' W 123°55'0 0.0
2017-May-17 08:00N 46°10' W 123°55'0 0.0
2017-May-17 07:31N 46°10' W 123°55'0 0.0
2017-May-17 07:00N 46°10' W 123°55'0 0.0
2017-May-17 06:31N 46°10' W 123°55'0 0.0
2017-May-17 06:00N 46°10' W 123°55'0 0.0
2017-May-17 05:31N 46°10' W 123°55'0 0.0
2017-May-17 05:01N 46°10' W 123°55'0 0.0
2017-May-17 04:30N 46°10' W 123°55'0 0.0
2017-May-17 04:00N 46°10' W 123°55'0 0.0
2017-May-17 03:30N 46°10' W 123°55'0 0.0
2017-May-17 03:00N 46°10' W 123°55'0 0.0
2017-May-17 02:30N 46°10' W 123°55'0 0.0
2017-May-17 02:01N 46°10' W 123°55'0 0.0
2017-May-17 01:30N 46°10' W 123°55'0 0.0
2017-May-17 01:01N 46°10' W 123°55'0 0.0
2017-May-17 00:31N 46°10' W 123°55'0 0.0
2017-May-17 00:00N 46°10' W 123°55'0 0.0
2017-May-16 23:30N 46°10' W 123°55'0 0.0
2017-May-16 23:00N 46°10' W 123°55'0 0.0
2017-May-16 22:30N 46°10' W 123°55'0 0.0
2017-May-16 22:00N 46°10' W 123°55'0 0.0
2017-May-16 21:30N 46°10' W 123°55'0 0.0
2017-May-16 21:00N 46°10' W 123°55'0 0.0
2017-May-16 20:31N 46°10' W 123°55'0 0.0
2017-May-16 20:01N 46°10' W 123°55'0 0.0
2017-May-16 19:31N 46°10' W 123°55'0 0.0
2017-May-16 19:01N 46°10' W 123°55'0 0.0
2017-May-16 18:30N 46°10' W 123°55'0 0.0
2017-May-16 18:00N 46°10' W 123°55'0 0.0
2017-May-16 17:30N 46°10' W 123°55'0 0.0
2017-May-16 17:00N 46°10' W 123°55'0 0.0
2017-May-16 16:30N 46°10' W 123°55'0 0.0
2017-May-16 16:00N 46°10' W 123°55'0 0.0
2017-May-16 15:30N 46°10' W 123°55'0 0.0
2017-May-16 15:00N 46°10' W 123°55'0 0.0
2017-May-16 14:30N 46°10' W 123°55'0 0.0
2017-May-16 13:30N 46°10' W 123°55'0 0.0
2017-May-16 13:01N 46°10' W 123°55'0 0.0
2017-May-16 12:30N 46°10' W 123°55'0 0.0
2017-May-16 12:00N 46°10' W 123°55'0 0.0
2017-May-16 11:30N 46°10' W 123°55'0 0.0
2017-May-16 11:00N 46°10' W 123°55'0 0.0
2017-May-16 10:31N 46°10' W 123°55'1 2.4
2017-May-16 10:01N 46°11' W 123°55'4 8.7
2017-May-16 09:30N 46°14' W 123°59'4 7.2
2017-May-16 09:00N 46°15' W 124°04'3 6.7
2017-May-16 08:30N 46°14' W 124°09'3 6.2
2017-May-16 08:00N 46°16' W 124°12'2 4.6
2017-May-16 07:30N 46°18' W 124°14'2 4.2
2017-May-16 07:00N 46°20' W 124°15'2 4.9
2017-May-16 06:30N 46°22' W 124°17'3 5.3
2017-May-16 06:00N 46°24' W 124°19'3 5.4
2017-May-16 05:30N 46°26' W 124°22'3 5.5
2017-May-16 05:00N 46°29' W 124°24'3 5.5
2017-May-16 04:31N 46°31' W 124°26'3 5.4
2017-May-16 04:00N 46°33' W 124°28'3 5.7
2017-May-16 03:30N 46°36' W 124°30'3 6.1
2017-May-16 03:00N 46°38' W 124°33'3 6.3
2017-May-16 02:30N 46°41' W 124°35'3 6.5
2017-May-16 02:00N 46°43' W 124°38'7 6.6
2017-May-16 01:00N 46°49' W 124°43'1 1.6
2017-May-16 00:29N 46°49' W 124°44'1 2.6
2017-May-16 00:00N 46°51' W 124°45'2 2.6
2017-May-15 23:16N 46°52' W 124°45'1 2.6
2017-May-15 22:54N 46°53' W 124°45'1 2.5
2017-May-15 22:23N 46°55' W 124°45'46 2.3
2017-May-15 02:11N 46°16' W 124°09'2 8.7
2017-May-15 02:00N 46°15' W 124°08'5 9.6
2017-May-15 01:30N 46°15' W 124°01'5 9.9
2017-May-15 01:00N 46°12' W 123°55'2 3.1
2017-May-15 00:30N 46°10' W 123°55'0 0.0
2017-May-15 00:00N 46°10' W 123°55'0 0.0
2017-May-14 23:30N 46°10' W 123°55'0 0.0
2017-May-14 23:00N 46°10' W 123°55'0 0.0
2017-May-14 22:30N 46°10' W 123°55'0 0.0
2017-May-14 22:00N 46°10' W 123°55'0 0.0
2017-May-14 21:30N 46°10' W 123°55'0 0.0
2017-May-14 20:39N 46°10' W 123°55'0 0.0
2017-May-14 20:30N 46°10' W 123°55'0 0.0
2017-May-14 20:00N 46°10' W 123°55'0 0.0
2017-May-14 19:31N 46°10' W 123°55'0 0.0
2017-May-14 19:01N 46°10' W 123°55'0 0.0
2017-May-14 18:30N 46°10' W 123°55'0 0.0
2017-May-14 18:00N 46°10' W 123°55'0 0.0
2017-May-14 17:30N 46°10' W 123°55'0 0.0
2017-May-14 17:00N 46°10' W 123°55'0 0.0
2017-May-14 16:30N 46°10' W 123°55'0 0.0
2017-May-14 16:00N 46°10' W 123°55'0 0.0
2017-May-14 15:30N 46°10' W 123°55'0 0.0
2017-May-14 15:00N 46°10' W 123°55'0 0.0
2017-May-14 14:30N 46°10' W 123°55'0 0.0
2017-May-14 13:30N 46°10' W 123°55'0 0.0
2017-May-14 13:00N 46°10' W 123°55'0 0.0
2017-May-14 12:30N 46°10' W 123°55'0 0.0
2017-May-14 12:00N 46°10' W 123°55'0 0.0
2017-May-14 11:30N 46°10' W 123°55'0 0.0
2017-May-14 11:00N 46°10' W 123°55'0 0.0
2017-May-14 10:29N 46°10' W 123°55'0 0.0
2017-May-14 10:01N 46°10' W 123°55'0 0.0
2017-May-14 09:30N 46°10' W 123°55'0 0.0
2017-May-14 09:00N 46°10' W 123°55'0 0.0
2017-May-14 08:30N 46°10' W 123°55'0 0.0
2017-May-14 08:01N 46°10' W 123°55'0 0.0
2017-May-14 07:30N 46°10' W 123°55'0 0.0
2017-May-14 07:00N 46°10' W 123°55'0 0.0
2017-May-14 06:31N 46°10' W 123°55'0 0.0
2017-May-14 06:00N 46°10' W 123°55'0 0.0
2017-May-14 05:30N 46°10' W 123°55'0 0.0
2017-May-14 05:00N 46°10' W 123°55'0 0.0
2017-May-14 04:31N 46°10' W 123°55'0 0.0
2017-May-14 04:00N 46°10' W 123°55'0 0.0
2017-May-14 03:30N 46°10' W 123°55'0 0.0
2017-May-14 03:00N 46°10' W 123°55'0 0.0
2017-May-14 02:30N 46°10' W 123°55'0 0.0
2017-May-14 02:00N 46°10' W 123°55'0 0.0
2017-May-14 01:30N 46°10' W 123°55'0 0.0
2017-May-14 00:57N 46°10' W 123°55'0 0.0
2017-May-14 00:30N 46°10' W 123°55'0 0.0
2017-May-14 00:00N 46°10' W 123°55'0 0.0
2017-May-13 23:30N 46°10' W 123°55'0 0.0
2017-May-13 23:00N 46°10' W 123°55'0 0.0
2017-May-13 22:30N 46°10' W 123°55'0 0.0
2017-May-13 22:00N 46°10' W 123°55'0 0.0
2017-May-13 21:09N 46°10' W 123°55'0 0.0
2017-May-13 21:00N 46°10' W 123°55'0 0.0
2017-May-13 20:30N 46°10' W 123°55'0 0.0
2017-May-13 20:00N 46°10' W 123°55'0 0.0
2017-May-13 19:31N 46°10' W 123°55'0 0.0
2017-May-13 19:00N 46°10' W 123°55'0 0.0
2017-May-13 18:30N 46°10' W 123°55'0 0.0
2017-May-13 18:00N 46°10' W 123°55'0 0.0
2017-May-13 17:30N 46°10' W 123°55'0 0.0
2017-May-13 17:00N 46°10' W 123°55'0 0.0
2017-May-13 16:30N 46°10' W 123°55'0 0.0
2017-May-13 16:00N 46°10' W 123°55'0 0.1
2017-May-13 15:31N 46°10' W 123°55'0 0.0
2017-May-13 15:00N 46°10' W 123°55'0 0.1
2017-May-13 14:30N 46°10' W 123°55'0 0.0
2017-May-13 13:30N 46°10' W 123°55'0 0.0
2017-May-13 13:00N 46°10' W 123°55'0 0.0
2017-May-13 12:30N 46°10' W 123°55'0 0.0
2017-May-13 12:00N 46°10' W 123°55'0 0.0
2017-May-13 11:30N 46°10' W 123°55'0 0.0
2017-May-13 11:01N 46°10' W 123°55'0 0.0
2017-May-13 10:30N 46°10' W 123°55'0 0.0
2017-May-13 10:00N 46°10' W 123°55'0 0.0
2017-May-13 09:30N 46°10' W 123°55'0 0.0
2017-May-13 09:00N 46°10' W 123°55'0 0.0
2017-May-13 08:31N 46°10' W 123°55'0 0.0
2017-May-13 07:58N 46°10' W 123°55'0 0.0
2017-May-13 07:30N 46°10' W 123°55'0 0.0
2017-May-13 07:00N 46°10' W 123°55'0 0.0
2017-May-13 06:30N 46°10' W 123°55'0 0.0
2017-May-13 06:00N 46°10' W 123°55'0 0.0
2017-May-13 05:31N 46°10' W 123°55'0 0.0
2017-May-13 05:00N 46°10' W 123°55'0 0.0
2017-May-13 04:30N 46°10' W 123°55'0 0.0
2017-May-13 04:00N 46°10' W 123°55'0 0.0
2017-May-13 03:30N 46°10' W 123°55'0 0.0
2017-May-13 03:00N 46°10' W 123°55'0 0.0
2017-May-13 02:31N 46°10' W 123°55'0 0.0
2017-May-13 02:00N 46°10' W 123°55'0 0.0
2017-May-13 01:24N 46°10' W 123°55'0 0.0
2017-May-13 01:00N 46°10' W 123°55'0 0.0
2017-May-13 00:31N 46°10' W 123°55'0 0.0
2017-May-13 00:00N 46°10' W 123°55'0 0.0
2017-May-12 23:30N 46°10' W 123°55'0 0.0
2017-May-12 23:00N 46°10' W 123°55'0 0.0
2017-May-12 22:30N 46°10' W 123°55'0 0.0
2017-May-12 22:01N 46°10' W 123°55'0 0.0
2017-May-12 21:30N 46°10' W 123°55'0 0.0
2017-May-12 21:00N 46°10' W 123°55'0 0.0
2017-May-12 20:30N 46°10' W 123°55'0 0.0
2017-May-12 20:00N 46°10' W 123°55'0 0.0
2017-May-12 19:30N 46°10' W 123°55'0 0.0
2017-May-12 19:00N 46°10' W 123°55'0 0.0
2017-May-12 18:31N 46°10' W 123°55'0 0.0
2017-May-12 18:00N 46°10' W 123°55'0 0.0
2017-May-12 17:30N 46°10' W 123°55'0 0.0
2017-May-12 17:00N 46°10' W 123°55'0 0.0
2017-May-12 16:30N 46°10' W 123°55'0 0.0
2017-May-12 16:00N 46°10' W 123°55'0 0.0
2017-May-12 15:31N 46°10' W 123°55'  

Dump ship's entire track history